Time;durP1;ratioP1;P1;durP2;ratioP2;P2;SDS_P1;SDS_P2;PMS_P1;PMS_P2;Temp;Humidity;BMP_temperature;BMP_pressure;BME280_temperature;BME280_humidity;BME280_pressure;Samples;Min_cycle;Max_cycle;Signal;HPM_P1;HPM_P2
2023/10/09 19:03:50;;;;;;;3.55;2.10;;;12.70;65.30;;;;;;5002402;27;4085445;-75
2023/10/09 19:06:22;;;;;;;3.65;2.25;;;13.00;49.40;;;;;;5119121;28;20115;-75
2023/10/09 19:08:48;;;;;;;2.67;2.35;;;13.10;47.10;;;;;;5115541;28;20024;-74
2023/10/09 19:11:15;;;;;;;2.08;1.90;;;12.90;46.00;;;;;;5116648;28;20028;-73
2023/10/09 19:13:41;;;;;;;3.38;2.50;;;12.60;45.70;;;;;;5129327;28;20428;-75
2023/10/09 19:16:08;;;;;;;3.92;2.03;;;12.30;45.60;;;;;;5113807;28;20116;-73
2023/10/09 19:18:35;;;;;;;2.72;2.03;;;12.00;45.50;;;;;;5113729;28;20027;-74
2023/10/09 19:21:10;;;;;;;3.10;2.00;;;11.70;45.80;;;;;;5132120;28;20349;-75
2023/10/09 19:23:40;;;;;;;;;;;11.50;46.00;;;;;;5123095;28;20404;-74
2023/10/09 19:26:06;;;;;;;2.60;1.65;;;11.30;46.00;;;;;;5110886;28;20283;-75
2023/10/09 19:28:32;;;;;;;2.13;1.85;;;11.20;46.20;;;;;;5093638;28;20024;-76
2023/10/09 19:31:05;;;;;;;3.20;2.35;;;11.00;46.30;;;;;;5064418;28;20477;-74
2023/10/09 19:33:35;;;;;;;2.33;2.13;;;11.00;46.50;;;;;;5091107;28;20469;-74
2023/10/09 19:36:11;;;;;;;3.85;2.10;;;10.90;46.50;;;;;;5080829;28;20050;-73
2023/10/09 19:38:50;;;;;;;2.05;1.90;;;10.90;46.50;;;;;;5111285;28;20361;-74
2023/10/09 19:41:21;;;;;;;2.10;1.90;;;10.80;46.40;;;;;;5111371;28;20015;-74
2023/10/09 19:43:47;;;;;;;1.92;1.83;;;10.80;46.40;;;;;;5104469;28;20035;-73
2023/10/09 19:46:16;;;;;;;1.90;1.80;;;10.70;46.50;;;;;;5092432;28;20024;-74
2023/10/09 19:48:45;;;;;;;5.28;1.90;;;10.70;46.60;;;;;;5102161;28;20020;-73
2023/10/09 19:51:12;;;;;;;2.10;1.90;;;10.60;46.60;;;;;;5092680;28;20028;-74
2023/10/09 19:53:38;;;;;;;3.92;2.00;;;10.60;46.60;;;;;;5092449;28;20482;-74
2023/10/09 19:56:11;;;;;;;2.00;1.80;;;10.60;46.60;;;;;;5092204;28;20110;-74
2023/10/09 19:58:39;;;;;;;2.17;1.98;;;10.50;46.70;;;;;;5091211;28;20032;-74
2023/10/09 20:01:10;;;;;;;2.50;2.30;;;10.50;46.70;;;;;;5074902;28;20036;-73
2023/10/09 20:03:36;;;;;;;3.38;2.40;;;10.50;46.70;;;;;;5088567;28;20234;-73
2023/10/09 20:06:03;;;;;;;2.67;2.13;;;10.40;46.70;;;;;;5110762;28;20039;-74
2023/10/09 20:08:29;;;;;;;2.00;1.80;;;10.30;46.80;;;;;;5092397;28;20031;-73
2023/10/09 20:10:55;;;;;;;2.55;2.10;;;10.30;46.90;;;;;;5091712;28;20110;-73
2023/10/09 20:13:24;;;;;;;2.30;2.10;;;10.20;47.10;;;;;;5102834;28;20032;-75
2023/10/09 20:15:59;;;;;;;2.22;2.03;;;10.20;47.10;;;;;;5085866;28;20024;-75
2023/10/09 20:18:25;;;;;;;2.95;2.30;;;10.20;47.20;;;;;;5063845;28;20036;-73
2023/10/09 20:21:05;;;;;;;2.95;2.00;;;10.20;47.20;;;;;;5076405;28;20031;-76
2023/10/09 20:23:35;;;;;;;3.30;2.33;;;10.10;47.20;;;;;;5081635;28;20076;-75
2023/10/09 20:26:03;;;;;;;3.00;2.40;;;10.10;47.30;;;;;;5083166;28;20036;-73
2023/10/09 20:28:30;;;;;;;2.88;2.30;;;10.10;47.30;;;;;;5078377;28;20027;-73
2023/10/09 20:31:01;;;;;;;3.00;2.20;;;10.10;47.30;;;;;;5096319;28;20480;-72
2023/10/09 20:33:33;;;;;;;3.30;2.40;;;10.10;47.40;;;;;;5078653;28;20028;-71
2023/10/09 20:36:05;;;;;;;2.58;2.17;;;10.10;47.40;;;;;;5096184;28;20024;-75
2023/10/09 20:38:32;;;;;;;2.65;2.20;;;10.00;47.40;;;;;;5078314;28;20056;-73
2023/10/09 20:40:58;;;;;;;2.63;2.20;;;10.00;47.50;;;;;;5076465;28;20085;-74
2023/10/09 20:43:24;;;;;;;3.42;2.50;;;9.90;47.60;;;;;;5078002;28;20044;-73
2023/10/09 20:45:49;;;;;;;2.90;2.20;;;9.90;47.60;;;;;;5096171;28;20081;-72
2023/10/09 20:48:16;;;;;;;2.13;1.90;;;9.80;47.70;;;;;;5096675;28;20028;-72
2023/10/09 20:50:43;;;;;;;3.17;2.25;;;9.80;47.70;;;;;;5078327;28;20020;-74
2023/10/09 20:53:09;;;;;;;2.67;2.40;;;9.80;47.80;;;;;;5078088;28;20550;-74
2023/10/09 20:55:34;;;;;;;3.55;2.55;;;9.80;47.90;;;;;;5077599;28;20035;-73
2023/10/09 20:58:00;;;;;;;4.90;2.70;;;9.70;47.90;;;;;;5095821;28;20385;-73
2023/10/09 21:00:27;;;;;;;3.50;2.40;;;9.60;48.10;;;;;;5078418;28;20377;-74
2023/10/09 21:02:54;;;;;;;3.72;2.70;;;9.50;48.10;;;;;;5077696;28;20056;-73
2023/10/09 21:05:24;;;;;;;3.33;2.60;;;9.50;48.20;;;;;;5076449;28;20060;-74
2023/10/09 21:07:52;;;;;;;3.95;2.83;;;9.50;48.30;;;;;;5094447;28;20028;-74
2023/10/09 21:10:19;;;;;;;4.25;2.80;;;9.50;48.40;;;;;;5095294;28;20107;-73
2023/10/09 21:12:49;;;;;;;4.95;3.13;;;9.40;48.40;;;;;;5095372;28;20028;-74
2023/10/09 21:15:16;;;;;;;4.18;2.70;;;9.30;48.50;;;;;;5095171;28;20032;-72
2023/10/09 21:17:43;;;;;;;4.47;3.00;;;9.20;48.60;;;;;;5077411;28;20063;-72
2023/10/09 21:20:15;;;;;;;3.67;2.70;;;9.10;48.80;;;;;;5095241;28;20095;-73
2023/10/09 21:22:46;;;;;;;3.58;2.97;;;9.00;49.00;;;;;;5095490;28;20032;-72
2023/10/09 21:25:20;;;;;;;4.30;2.90;;;8.90;49.20;;;;;;5076544;28;20031;-73
2023/10/09 21:27:47;;;;;;;4.13;3.05;;;8.80;49.30;;;;;;5077470;28;20132;-73
2023/10/09 21:30:15;;;;;;;3.50;2.70;;;8.70;49.60;;;;;;5077434;28;20028;-73
2023/10/09 21:32:48;;;;;;;2.83;2.58;;;8.60;49.70;;;;;;5076897;28;20465;-72
2023/10/09 21:35:16;;;;;;;3.78;2.88;;;8.60;49.90;;;;;;5095198;28;20028;-73
2023/10/09 21:37:46;;;;;;;4.82;2.70;;;8.60;50.00;;;;;;5095437;28;20103;-73
2023/10/09 21:40:13;;;;;;;4.70;3.00;;;8.60;49.90;;;;;;5077031;28;20081;-73
2023/10/09 21:42:44;;;;;;;3.33;2.75;;;8.60;50.10;;;;;;5061173;28;20047;-75
2023/10/09 21:45:10;;;;;;;4.45;2.95;;;8.50;50.10;;;;;;5095248;28;20020;-73
2023/10/09 21:47:39;;;;;;;5.68;3.30;;;8.40;50.10;;;;;;5094901;28;20028;-73
2023/10/09 21:50:05;;;;;;;4.22;3.13;;;8.40;50.30;;;;;;5095103;28;20028;-73
2023/10/09 21:52:31;;;;;;;4.43;3.10;;;8.30;50.40;;;;;;5076504;28;20036;-73
2023/10/09 21:54:57;;;;;;;4.53;2.88;;;8.30;50.50;;;;;;5094944;28;20108;-73
2023/10/09 21:57:23;;;;;;;4.03;2.80;;;8.20;50.70;;;;;;5094991;28;20063;-71
2023/10/09 21:59:48;;;;;;;4.60;2.92;;;8.20;50.70;;;;;;5094705;28;20448;-73
2023/10/09 22:02:15;;;;;;;3.58;2.83;;;8.20;50.80;;;;;;5094175;28;20048;-74
2023/10/09 22:04:41;;;;;;;3.28;2.70;;;8.20;50.80;;;;;;5095118;28;20036;-72
2023/10/09 22:07:08;;;;;;;4.70;2.80;;;8.30;51.00;;;;;;5094781;28;20039;-74
2023/10/09 22:09:35;;;;;;;4.07;2.90;;;8.30;51.00;;;;;;5094621;28;20036;-73
2023/10/09 22:12:01;;;;;;;3.90;3.00;;;8.40;50.80;;;;;;5094500;28;20057;-73
2023/10/09 22:14:27;;;;;;;3.13;2.60;;;8.40;50.70;;;;;;5059581;28;20036;-72
2023/10/09 22:16:53;;;;;;;3.58;2.75;;;8.40;50.80;;;;;;5094544;28;20024;-73
2023/10/09 22:19:24;;;;;;;3.00;2.70;;;8.40;50.70;;;;;;5094205;28;20027;-73
2023/10/09 22:21:56;;;;;;;2.92;2.67;;;8.40;50.70;;;;;;5094251;28;20038;-74
2023/10/09 22:24:25;;;;;;;4.43;2.63;;;8.50;50.80;;;;;;5094431;28;20097;-74
2023/10/09 22:26:51;;;;;;;2.90;2.60;;;8.40;50.70;;;;;;5076121;28;20032;-73
2023/10/09 22:29:20;;;;;;;3.05;2.60;;;8.50;50.60;;;;;;5076087;28;20055;-72
2023/10/09 22:31:48;;;;;;;2.65;2.40;;;8.50;50.60;;;;;;5094037;28;20431;-75
2023/10/09 22:34:14;;;;;;;3.30;2.72;;;8.50;50.60;;;;;;5094579;28;20048;-73
2023/10/09 22:36:47;;;;;;;3.85;2.60;;;8.40;50.60;;;;;;5076151;28;20035;-73
2023/10/09 22:39:32;;;;;;;3.22;2.60;;;8.40;50.70;;;;;;5094162;28;20027;-73
2023/10/09 22:42:00;;;;;;;3.30;2.42;;;8.30;50.80;;;;;;5075441;28;20023;-73
2023/10/09 22:44:32;;;;;;;2.78;2.53;;;8.30;50.90;;;;;;5094137;28;20385;-73
2023/10/09 22:47:04;;;;;;;3.92;2.60;;;8.30;51.00;;;;;;5076058;28;20024;-73
2023/10/09 22:49:34;;;;;;;3.95;2.80;;;8.30;50.90;;;;;;5094356;28;20028;-73
2023/10/09 22:52:10;;;;;;;2.80;2.38;;;8.30;51.00;;;;;;5093885;28;20107;-73
2023/10/09 22:54:37;;;;;;;3.40;2.60;;;8.20;51.00;;;;;;5093876;28;20024;-72
2023/10/09 22:57:05;;;;;;;4.18;2.63;;;8.20;51.00;;;;;;5093949;28;20073;-74
2023/10/09 22:59:31;;;;;;;4.18;2.70;;;8.30;51.10;;;;;;5075928;28;20377;-73
2023/10/09 23:01:58;;;;;;;4.80;3.03;;;8.20;51.00;;;;;;5094052;28;20031;-73
2023/10/09 23:04:37;;;;;;;3.38;2.65;;;8.10;51.10;;;;;;5094057;28;20409;-73
2023/10/09 23:07:15;;;;;;;4.30;2.95;;;8.10;51.40;;;;;;5075601;28;20040;-73
2023/10/09 23:09:49;;;;;;;3.25;2.67;;;8.10;51.50;;;;;;5076208;28;20028;-74
2023/10/09 23:12:22;;;;;;;3.55;2.63;;;8.10;51.50;;;;;;5075770;28;20123;-74
2023/10/09 23:14:52;;;;;;;4.05;2.80;;;8.10;51.50;;;;;;5093679;28;20108;-73
2023/10/09 23:20:14;;;;;;;6.13;2.88;;;8.20;51.40;;;;;;5093953;28;20035;-73
2023/10/09 23:22:58;;;;;;;4.80;3.17;;;8.10;51.40;;;;;;5093628;28;20040;-73
2023/10/09 23:25:33;;;;;;;4.43;2.80;;;8.00;51.40;;;;;;5093792;28;20024;-73
2023/10/09 23:28:16;;;;;;;4.80;3.10;;;8.00;51.70;;;;;;5093768;28;20079;-74
2023/10/09 23:30:52;;;;;;;5.57;3.30;;;7.90;51.70;;;;;;5075492;28;20032;-73
2023/10/09 23:33:20;;;;;;;5.95;3.20;;;7.90;51.90;;;;;;5075633;28;20036;-73
2023/10/09 23:35:55;;;;;;;6.10;3.30;;;7.80;52.00;;;;;;5075901;28;20031;-73
2023/10/09 23:38:30;;;;;;;6.97;3.85;;;7.80;52.10;;;;;;5099940;28;20085;-72
2023/10/09 23:40:56;;;;;;;4.78;3.22;;;7.60;52.20;;;;;;5095567;28;20024;-73
2023/10/09 23:43:28;;;;;;;5.03;3.15;;;7.60;52.40;;;;;;5058930;28;20035;-73
2023/10/09 23:45:57;;;;;;;4.18;2.97;;;7.50;52.50;;;;;;5093905;28;20031;-72
2023/10/09 23:48:26;;;;;;;5.55;3.28;;;7.50;52.60;;;;;;5093930;28;20024;-75
2023/10/09 23:51:00;;;;;;;4.93;3.03;;;7.50;52.70;;;;;;5078640;28;20359;-75
2023/10/09 23:53:35;;;;;;;3.70;3.03;;;7.50;52.70;;;;;;5079422;28;20031;-73
2023/10/09 23:56:08;;;;;;;4.22;3.15;;;7.50;52.70;;;;;;5097302;28;20101;-74
2023/10/09 23:58:38;;;;;;;5.80;3.20;;;7.50;52.70;;;;;;5097520;28;20036;-71
